Portada
METAR-TAF:

METAR-TAF

Aeroports :

Proserpine, Austràlia

latitud: 20-29-42S, longitud: 148-33-06E, altitud: 25 m

Observació

L'informe es va fer fa 47 minuts, a les 09:00 UTC
Vent 7 kt del Est/Sud-Est
Temperatura 20°C
Humitat 73%
Pressió 1019 hPa
Visibilitat 10 km o més

METAR: YBPN 240900Z AUTO 11007KT 9999 // NCD 20/15 Q1019

Hora: 19:47 (09:47 UTC)


TAF: manca

Observacions i pronòstics meteorològics de més de 4000 aeroports (METAR i TAF).

Les estacions disponibles són els punts grocs i vermells al mapa.

Posi el ratolí al punt desitjat per veure el nom de l'estació.

Feu clic per veure les observacions i els pronòstics meteorològics.

Per canviar el mapa: feu clic els botons verds amb una creu de color negre per apropar; al botó verd amb un guió per allunyar la imatge; o en les fletxes verdes per a mapes adjacents.


METAR-TAF: